Time;durP1;ratioP1;P1;durP2;ratioP2;P2;SDS_P1;SDS_P2;PMS_P1;PMS_P2;Temp;Humidity;BMP_temperature;BMP_pressure;BME280_temperature;BME280_humidity;BME280_pressure;Samples;Min_cycle;Max_cycle;Signal;HPM_P1;HPM_P2
2022/09/02 00:01:12;;;;;;;1.37;1.27;;;13.80;99.90;;;;;;5034288;28;20434;-74
2022/09/02 00:03:38;;;;;;;1.50;1.40;;;13.70;99.90;;;;;;5034212;28;20413;-73
2022/09/02 00:06:04;;;;;;;1.30;1.20;;;13.70;99.90;;;;;;5034120;28;20414;-73
2022/09/02 00:08:30;;;;;;;2.00;1.43;;;13.70;99.90;;;;;;5034261;28;20413;-73
2022/09/02 00:10:57;;;;;;;1.20;1.10;;;13.70;99.90;;;;;;5034393;28;20417;-74
2022/09/02 00:13:23;;;;;;;2.17;1.33;;;13.70;99.90;;;;;;5033969;28;20446;-74
2022/09/02 00:15:49;;;;;;;4.20;2.00;;;13.80;99.90;;;;;;5033790;28;20422;-73
2022/09/02 00:18:15;;;;;;;1.73;1.60;;;13.80;99.90;;;;;;5034004;28;20164;-74
2022/09/02 00:20:44;;;;;;;1.80;1.20;;;13.80;99.90;;;;;;5033867;28;20406;-74
2022/09/02 00:23:10;;;;;;;1.23;1.13;;;13.80;99.90;;;;;;5033877;28;20419;-74
2022/09/02 00:25:37;;;;;;;2.40;1.73;;;13.80;99.90;;;;;;5033521;28;20577;-72
2022/09/02 00:28:03;;;;;;;1.97;1.77;;;13.80;99.90;;;;;;5033746;28;20404;-74
2022/09/02 00:30:29;;;;;;;6.23;2.90;;;13.90;99.90;;;;;;5033648;28;20920;-74
2022/09/02 00:32:54;;;;;;;3.50;2.07;;;13.90;99.90;;;;;;5033633;28;20416;-74
2022/09/02 00:35:20;;;;;;;6.73;4.07;;;13.90;99.90;;;;;;5033466;28;20192;-73
2022/09/02 00:37:46;;;;;;;2.97;2.07;;;13.90;99.90;;;;;;5033953;28;20254;-74
2022/09/02 00:40:12;;;;;;;4.33;2.10;;;14.00;99.90;;;;;;5039615;28;20175;-73
2022/09/02 00:42:39;;;;;;;4.23;2.03;;;14.00;99.90;;;;;;5053548;28;20181;-73
2022/09/02 00:47:40;;;;;;;1.83;1.57;;;14.00;99.90;;;;;;5049700;28;20473;-67
2022/09/02 00:50:10;;;;;;;3.23;1.93;;;14.00;99.90;;;;;;5053946;28;20417;-68
2022/09/02 00:52:43;;;;;;;6.60;3.30;;;14.00;99.90;;;;;;5053632;28;20165;-68
2022/09/02 00:55:16;;;;;;;2.80;1.80;;;14.10;99.90;;;;;;5052741;28;20458;-67
2022/09/02 00:57:49;;;;;;;3.90;2.30;;;14.10;99.90;;;;;;5033586;28;20406;-67
2022/09/02 01:00:32;;;;;;;2.63;1.80;;;14.10;99.90;;;;;;5048860;28;20406;-75
2022/09/02 01:03:01;;;;;;;1.43;1.33;;;14.20;99.90;;;;;;5033487;28;20410;-68
2022/09/02 01:05:31;;;;;;;2.33;1.37;;;14.20;99.90;;;;;;5033083;28;20515;-67
2022/09/02 01:07:58;;;;;;;1.93;1.27;;;14.20;99.90;;;;;;5032392;28;20422;-67
2022/09/02 01:10:33;;;;;;;2.23;1.60;;;14.20;99.90;;;;;;5033283;28;20405;-68
2022/09/02 01:13:09;;;;;;;2.30;1.60;;;14.20;99.90;;;;;;5033171;28;20409;-68
2022/09/02 01:15:38;;;;;;;1.60;1.30;;;14.30;99.90;;;;;;5049965;28;20502;-67
2022/09/02 01:18:06;;;;;;;1.67;1.17;;;14.30;99.90;;;;;;5052948;28;20927;-68
2022/09/02 01:20:32;;;;;;;5.90;2.03;;;14.20;99.90;;;;;;5052804;28;20460;-67
2022/09/02 01:22:59;;;;;;;1.20;1.10;;;14.30;99.90;;;;;;5048401;28;20436;-68
2022/09/02 01:25:28;;;;;;;1.40;1.20;;;14.30;99.90;;;;;;5032955;28;20530;-66
2022/09/02 01:28:07;;;;;;;1.30;1.20;;;14.30;99.90;;;;;;5032918;28;20422;-66
2022/09/02 01:30:34;;;;;;;1.43;1.20;;;14.30;99.90;;;;;;5032677;28;20493;-67
2022/09/02 01:32:59;;;;;;;2.33;1.43;;;14.30;99.90;;;;;;5032677;28;20398;-66
2022/09/02 01:35:25;;;;;;;1.87;1.50;;;14.30;99.90;;;;;;5032492;28;20837;-66
2022/09/02 01:37:54;;;;;;;2.07;1.87;;;14.30;99.90;;;;;;5032523;28;20251;-67
2022/09/02 01:40:20;;;;;;;1.73;1.20;;;14.30;99.90;;;;;;5032603;28;20171;-67
2022/09/02 01:42:47;;;;;;;1.27;1.17;;;14.30;99.90;;;;;;5032628;28;20410;-67
2022/09/02 01:45:14;;;;;;;1.17;0.97;;;14.30;99.90;;;;;;5032183;28;20410;-67
2022/09/02 01:47:39;;;;;;;1.20;1.00;;;14.30;99.90;;;;;;5032717;28;20423;-67
2022/09/02 01:50:06;;;;;;;2.53;1.20;;;14.20;99.90;;;;;;5032197;28;20471;-67
2022/09/02 01:52:32;;;;;;;1.60;1.37;;;14.20;99.90;;;;;;5031904;28;20168;-67
2022/09/02 01:54:58;;;;;;;1.30;1.20;;;14.20;99.90;;;;;;5032208;28;20493;-67
2022/09/02 01:57:24;;;;;;;1.23;1.13;;;14.20;99.90;;;;;;5032341;28;20316;-67
2022/09/02 01:59:54;;;;;;;1.40;1.30;;;14.20;99.90;;;;;;5033506;28;20176;-67
2022/09/02 02:02:20;;;;;;;1.63;1.20;;;14.20;99.90;;;;;;5033656;28;20168;-67
2022/09/02 02:04:47;;;;;;;3.00;1.80;;;14.20;99.90;;;;;;5032180;28;20409;-68
2022/09/02 02:07:14;;;;;;;1.30;1.20;;;14.20;99.90;;;;;;5032204;28;21058;-66
2022/09/02 02:09:41;;;;;;;0.93;0.87;;;14.30;99.90;;;;;;5032226;28;20457;-67
2022/09/02 02:12:08;;;;;;;1.20;1.10;;;14.30;99.90;;;;;;5032029;28;20460;-67
2022/09/02 02:14:34;;;;;;;1.37;1.20;;;14.30;99.90;;;;;;5031892;28;20454;-67
2022/09/02 02:16:59;;;;;;;1.27;1.17;;;14.30;99.90;;;;;;5032035;28;20480;-67
2022/09/02 02:19:25;;;;;;;1.43;1.27;;;14.30;99.90;;;;;;5032045;28;20894;-66
2022/09/02 02:21:51;;;;;;;2.27;1.50;;;14.30;99.90;;;;;;5032031;28;20160;-67
2022/09/02 02:24:17;;;;;;;1.30;1.20;;;14.30;99.90;;;;;;5032230;28;20433;-67
2022/09/02 02:26:43;;;;;;;1.20;1.10;;;14.30;99.90;;;;;;5031682;28;20198;-66
2022/09/02 02:29:08;;;;;;;1.50;1.40;;;14.20;99.90;;;;;;5032203;28;20411;-67
2022/09/02 02:31:34;;;;;;;3.30;1.47;;;14.20;99.90;;;;;;5031909;28;20246;-67
2022/09/02 02:34:00;;;;;;;1.80;1.40;;;14.20;99.90;;;;;;5031712;28;20195;-66
2022/09/02 02:36:26;;;;;;;1.47;1.37;;;14.20;99.90;;;;;;5031823;28;20270;-66
2022/09/02 02:38:52;;;;;;;1.47;1.20;;;14.10;99.90;;;;;;5031950;28;20919;-67
2022/09/02 02:41:17;;;;;;;2.17;1.20;;;14.30;99.90;;;;;;5031941;28;20179;-67
2022/09/02 02:43:43;;;;;;;3.30;2.33;;;14.10;99.90;;;;;;5031883;28;20175;-67
2022/09/02 02:46:10;;;;;;;1.20;1.10;;;14.10;99.90;;;;;;5031538;28;20214;-66
2022/09/02 02:48:36;;;;;;;1.83;1.50;;;14.00;99.90;;;;;;5031749;28;20184;-67
2022/09/02 02:51:03;;;;;;;2.27;1.27;;;14.00;99.90;;;;;;5031791;28;20422;-67
2022/09/02 02:53:30;;;;;;;1.40;1.00;;;13.90;99.90;;;;;;5031630;28;20543;-67
2022/09/02 02:55:56;;;;;;;1.70;1.60;;;13.90;99.90;;;;;;5031287;28;20488;-67
2022/09/02 02:58:22;;;;;;;2.50;2.30;;;13.80;99.90;;;;;;5031634;28;20406;-66
2022/09/02 03:00:48;;;;;;;1.60;1.30;;;13.80;99.90;;;;;;5031673;28;20433;-68
2022/09/02 03:03:18;;;;;;;1.40;1.30;;;13.80;99.90;;;;;;5034368;28;20167;-67
2022/09/02 03:05:44;;;;;;;1.43;1.30;;;13.80;99.90;;;;;;5035312;28;20426;-67
2022/09/02 03:08:11;;;;;;;1.53;1.30;;;13.70;99.90;;;;;;5035463;28;20417;-67
2022/09/02 03:10:40;;;;;;;1.10;1.10;;;13.70;99.90;;;;;;5035324;28;20923;-66
2022/09/02 03:13:08;;;;;;;2.30;1.90;;;13.70;99.90;;;;;;5035317;28;20442;-67
2022/09/02 03:15:35;;;;;;;2.83;1.30;;;13.60;99.90;;;;;;5035321;28;20868;-67
2022/09/02 03:18:00;;;;;;;2.00;1.20;;;13.60;99.90;;;;;;5035317;28;20505;-67
2022/09/02 03:20:26;;;;;;;2.80;1.43;;;13.50;99.90;;;;;;5035302;28;20490;-67
2022/09/02 03:22:55;;;;;;;1.37;1.20;;;13.50;99.90;;;;;;5035158;28;20225;-66
2022/09/02 03:25:21;;;;;;;1.83;1.23;;;13.40;99.90;;;;;;5034950;28;20171;-66
2022/09/02 03:27:48;;;;;;;1.50;1.40;;;13.30;99.90;;;;;;5035122;28;20410;-67
2022/09/02 03:30:18;;;;;;;1.53;1.43;;;13.30;99.90;;;;;;5035170;28;20406;-66
2022/09/02 03:32:43;;;;;;;1.47;1.37;;;13.20;99.90;;;;;;5034908;28;20422;-66
2022/09/02 03:35:16;;;;;;;1.37;1.27;;;13.20;99.90;;;;;;5034742;28;20974;-66
2022/09/02 03:37:42;;;;;;;1.73;1.23;;;13.20;99.90;;;;;;5035206;28;20156;-67
2022/09/02 03:40:11;;;;;;;2.00;1.47;;;13.10;99.90;;;;;;5035100;28;20452;-66
2022/09/02 03:42:37;;;;;;;1.60;1.40;;;13.10;99.90;;;;;;5034849;28;20201;-68
2022/09/02 03:45:04;;;;;;;1.63;1.23;;;13.10;99.90;;;;;;5034742;28;20501;-66
2022/09/02 03:47:29;;;;;;;3.43;1.63;;;13.00;99.90;;;;;;5034715;28;21002;-67
2022/09/02 03:49:56;;;;;;;2.10;1.57;;;13.00;99.90;;;;;;5035025;28;20410;-66
2022/09/02 03:52:22;;;;;;;1.93;0.90;;;13.10;99.90;;;;;;5034539;28;20190;-66
2022/09/02 03:54:48;;;;;;;2.23;1.40;;;13.00;99.90;;;;;;5034279;28;20454;-66
2022/09/02 03:57:14;;;;;;;2.03;1.40;;;13.00;99.90;;;;;;5034657;28;20530;-67
2022/09/02 03:59:39;;;;;;;1.90;1.73;;;13.00;99.90;;;;;;5034591;28;20501;-67
2022/09/02 04:02:05;;;;;;;1.60;1.50;;;13.00;99.90;;;;;;5034460;28;20485;-66
2022/09/02 04:04:31;;;;;;;1.30;1.20;;;13.00;99.90;;;;;;5034341;28;20187;-66
2022/09/02 04:06:58;;;;;;;1.43;1.20;;;13.00;99.90;;;;;;5034272;28;20433;-66
2022/09/02 04:09:24;;;;;;;2.90;1.70;;;13.00;99.90;;;;;;5034526;28;20418;-66
2022/09/02 04:11:50;;;;;;;2.10;1.20;;;12.90;99.90;;;;;;5034539;28;20464;-67
2022/09/02 04:14:15;;;;;;;1.40;1.30;;;12.90;99.90;;;;;;5033462;28;20195;-66
2022/09/02 04:16:41;;;;;;;1.50;1.40;;;12.90;99.90;;;;;;5034141;28;20513;-68
2022/09/02 04:19:08;;;;;;;1.30;1.20;;;12.90;99.90;;;;;;5034395;28;20689;-65
2022/09/02 04:21:37;;;;;;;1.93;1.70;;;12.90;99.90;;;;;;5034073;28;20180;-67
2022/09/02 04:24:04;;;;;;;1.20;1.10;;;12.90;99.90;;;;;;5034027;28;20454;-67
2022/09/02 04:26:30;;;;;;;3.83;1.27;;;12.90;99.90;;;;;;5034056;28;20445;-67
2022/09/02 04:28:56;;;;;;;2.00;1.43;;;12.90;99.90;;;;;;5034113;28;20410;-67
2022/09/02 04:31:24;;;;;;;1.57;1.47;;;12.80;99.90;;;;;;5034104;28;20258;-67
2022/09/02 04:33:50;;;;;;;1.77;1.60;;;12.90;99.90;;;;;;5033928;28;20214;-67
2022/09/02 04:36:18;;;;;;;1.63;1.43;;;12.80;99.90;;;;;;5033858;28;20457;-68
2022/09/02 04:38:43;;;;;;;1.77;1.60;;;12.90;99.90;;;;;;5035152;28;20425;-68
2022/09/02 04:41:12;;;;;;;1.70;1.23;;;12.90;99.90;;;;;;5035655;28;20885;-67
2022/09/02 04:43:39;;;;;;;1.63;1.40;;;12.90;99.90;;;;;;5035452;28;20182;-67
2022/09/02 04:46:07;;;;;;;2.53;1.70;;;12.90;99.90;;;;;;5034478;28;20485;-67
2022/09/02 04:48:35;;;;;;;1.70;1.53;;;12.90;99.90;;;;;;5034403;28;20410;-67
2022/09/02 04:51:16;;;;;;;1.70;1.60;;;12.90;99.90;;;;;;5016365;28;20753;-67
2022/09/02 04:53:42;;;;;;;1.97;1.77;;;12.90;99.90;;;;;;5033677;28;20528;-67
2022/09/02 04:56:11;;;;;;;2.07;1.40;;;12.90;99.90;;;;;;5033500;28;20779;-69
2022/09/02 04:58:38;;;;;;;2.33;2.10;;;12.90;99.90;;;;;;5033975;28;20770;-66
2022/09/02 05:01:09;;;;;;;1.43;1.33;;;12.90;99.90;;;;;;5033759;28;20460;-66
2022/09/02 05:03:35;;;;;;;1.70;1.60;;;12.90;99.90;;;;;;5033755;28;20750;-67
2022/09/02 05:06:04;;;;;;;2.17;1.67;;;13.00;99.90;;;;;;5033192;28;20434;-67
2022/09/02 05:08:30;;;;;;;2.30;1.27;;;13.00;99.90;;;;;;5033402;28;20414;-67
2022/09/02 05:10:56;;;;;;;1.33;1.23;;;13.00;99.90;;;;;;5033753;28;20425;-66
2022/09/02 05:13:22;;;;;;;1.83;1.40;;;13.10;99.90;;;;;;5015566;28;20547;-67
2022/09/02 05:15:48;;;;;;;1.60;1.50;;;13.10;99.90;;;;;;5033100;28;20435;-66
2022/09/02 05:18:14;;;;;;;5.43;1.70;;;13.20;99.90;;;;;;5034145;28;20676;-66
2022/09/02 05:20:44;;;;;;;2.37;1.60;;;13.20;99.90;;;;;;5034031;28;20803;-67
2022/09/02 05:23:10;;;;;;;2.17;1.50;;;13.30;99.90;;;;;;5032966;28;20410;-67
2022/09/02 05:25:37;;;;;;;1.30;1.17;;;13.40;99.90;;;;;;5032700;28;20426;-67
2022/09/02 05:28:04;;;;;;;2.17;1.90;;;13.40;99.90;;;;;;5033101;28;20406;-66
2022/09/02 05:30:29;;;;;;;2.70;1.63;;;13.40;99.90;;;;;;5033103;28;20457;-66
2022/09/02 05:32:55;;;;;;;2.20;1.93;;;13.60;99.90;;;;;;5033142;28;20450;-66
2022/09/02 05:35:20;;;;;;;1.97;1.70;;;13.70;99.90;;;;;;5032529;28;20243;-66
2022/09/02 05:37:46;;;;;;;1.63;1.53;;;13.70;99.90;;;;;;5033193;28;20175;-66
2022/09/02 05:40:11;;;;;;;1.53;1.37;;;13.80;99.90;;;;;;5032833;28;20622;-66
2022/09/02 05:42:38;;;;;;;1.63;1.53;;;13.90;99.90;;;;;;5032446;28;20271;-66
2022/09/02 05:45:05;;;;;;;2.10;1.27;;;14.00;99.90;;;;;;5028164;28;20196;-66
2022/09/02 05:47:32;;;;;;;2.40;1.83;;;14.10;99.90;;;;;;5027898;28;20442;-67
2022/09/02 05:50:00;;;;;;;1.67;1.20;;;14.10;99.90;;;;;;5019346;28;20435;-66
2022/09/02 05:52:27;;;;;;;2.00;1.73;;;14.20;99.90;;;;;;5031617;28;20422;-68
2022/09/02 05:54:53;;;;;;;1.50;1.33;;;14.20;99.90;;;;;;5013710;28;20549;-67
2022/09/02 05:57:18;;;;;;;2.73;1.60;;;14.30;99.90;;;;;;5025997;28;20510;-70
2022/09/02 05:59:46;;;;;;;2.50;1.83;;;14.50;99.90;;;;;;5032456;28;20407;-69
2022/09/02 06:02:13;;;;;;;2.30;1.40;;;14.70;99.90;;;;;;5023516;28;20522;-68
2022/09/02 06:04:41;;;;;;;1.83;1.40;;;15.00;99.90;;;;;;5012566;28;20426;-66
2022/09/02 06:07:07;;;;;;;1.63;1.27;;;15.10;99.90;;;;;;5012318;28;20803;-66
2022/09/02 06:09:33;;;;;;;2.33;1.57;;;15.00;99.90;;;;;;5012698;28;20406;-67
2022/09/02 06:11:59;;;;;;;1.37;1.27;;;15.00;99.90;;;;;;5012333;28;20182;-67
2022/09/02 06:14:25;;;;;;;1.63;1.50;;;14.90;99.90;;;;;;5012178;28;20464;-66
2022/09/02 06:16:53;;;;;;;3.00;1.87;;;14.90;99.90;;;;;;5021631;28;20184;-68
2022/09/02 06:19:20;;;;;;;2.53;2.20;;;15.00;99.90;;;;;;5022949;28;20415;-67
2022/09/02 06:21:47;;;;;;;1.67;1.30;;;15.10;99.90;;;;;;5015223;28;20413;-67
2022/09/02 06:24:13;;;;;;;1.20;1.00;;;15.20;99.90;;;;;;5029471;28;20524;-67
2022/09/02 06:26:40;;;;;;;2.43;1.97;;;15.20;99.90;;;;;;5031633;28;20444;-67
2022/09/02 06:29:06;;;;;;;1.73;1.30;;;15.30;99.90;;;;;;5032091;28;20415;-66
2022/09/02 06:31:32;;;;;;;1.90;1.67;;;15.30;99.90;;;;;;5032137;28;20898;-67
2022/09/02 06:33:58;;;;;;;1.53;1.40;;;15.50;99.90;;;;;;5031877;28;20452;-67
2022/09/02 06:36:26;;;;;;;1.60;1.50;;;15.60;99.90;;;;;;5031305;28;20739;-67
2022/09/02 06:38:54;;;;;;;1.80;1.40;;;15.70;99.90;;;;;;5031576;28;20420;-66
2022/09/02 06:41:25;;;;;;;2.73;2.30;;;16.50;99.90;;;;;;5031824;28;20418;-67
2022/09/02 06:43:51;;;;;;;1.43;1.20;;;17.20;99.90;;;;;;5031960;28;20507;-67
2022/09/02 06:46:20;;;;;;;1.53;1.20;;;18.30;99.90;;;;;;5031300;28;20535;-67
2022/09/02 06:48:48;;;;;;;2.20;2.00;;;19.20;99.90;;;;;;5060592;23;20497;-72
2022/09/02 06:51:23;;;;;;;1.60;1.50;;;19.10;99.90;;;;;;5036316;28;20478;-73
2022/09/02 06:53:49;;;;;;;2.20;1.60;;;19.10;99.90;;;;;;5034387;28;20542;-74
2022/09/02 06:56:15;;;;;;;4.60;1.80;;;19.40;99.90;;;;;;5031545;28;20853;-73
2022/09/02 06:58:41;;;;;;;6.80;1.67;;;19.00;99.90;;;;;;5031310;28;20205;-73
2022/09/02 07:01:06;;;;;;;2.63;2.23;;;19.20;99.90;;;;;;5031709;28;20206;-73
2022/09/02 07:06:27;;;;;;;2.40;1.40;;;19.40;99.90;;;;;;4960194;28;20206;-73
2022/09/02 07:08:53;;;;;;;2.13;1.50;;;20.60;99.90;;;;;;5048196;28;20432;-73
2022/09/02 07:11:21;;;;;;;1.80;1.60;;;21.40;99.90;;;;;;5051849;28;20178;-73
2022/09/02 07:13:47;;;;;;;3.13;2.23;;;22.20;99.90;;;;;;5051990;28;20594;-74
2022/09/02 07:16:14;;;;;;;1.70;1.23;;;22.50;99.90;;;;;;5051641;28;20435;-74
2022/09/02 07:18:41;;;;;;;2.43;1.80;;;21.60;99.90;;;;;;5051558;28;20425;-74
2022/09/02 07:21:09;;;;;;;3.83;2.90;;;22.30;99.90;;;;;;5036886;28;20776;-74
2022/09/02 07:23:34;;;;;;;3.30;2.43;;;22.50;99.90;;;;;;5031709;28;20840;-74
2022/09/02 07:26:00;;;;;;;3.10;2.00;;;22.70;99.90;;;;;;5048430;28;20421;-74
2022/09/02 07:28:26;;;;;;;2.67;1.80;;;23.30;99.90;;;;;;5051566;28;20190;-75
2022/09/02 07:30:54;;;;;;;5.30;2.00;;;23.00;99.90;;;;;;5051500;28;20216;-74
2022/09/02 07:33:20;;;;;;;2.17;1.57;;;23.50;99.90;;;;;;5051836;28;20484;-74
2022/09/02 07:35:45;;;;;;;12.20;5.20;;;23.00;99.90;;;;;;5051406;28;20405;-74
2022/09/02 07:38:11;;;;;;;2.50;2.30;;;23.40;99.90;;;;;;5051279;28;20428;-74
2022/09/02 07:40:39;;;;;;;4.33;2.20;;;23.40;99.90;;;;;;5051483;28;20248;-74
2022/09/02 07:43:07;;;;;;;1.80;1.70;;;23.50;99.90;;;;;;5051310;28;20410;-74
2022/09/02 07:45:34;;;;;;;2.37;1.97;;;23.30;99.90;;;;;;5051102;28;20412;-74
2022/09/02 07:48:00;;;;;;;4.80;1.20;;;23.60;99.90;;;;;;5032195;28;20490;-75
2022/09/02 07:50:26;;;;;;;5.33;4.40;;;24.10;99.70;;;;;;5034392;28;20497;-74
2022/09/02 07:52:54;;;;;;;2.67;1.80;;;23.90;99.20;;;;;;5039126;28;20178;-74
2022/09/02 07:55:22;;;;;;;2.90;1.77;;;24.40;99.20;;;;;;5036795;28;20459;-74
2022/09/02 07:57:48;;;;;;;4.50;1.93;;;24.50;98.40;;;;;;5054553;28;20937;-74
2022/09/02 08:00:16;;;;;;;2.00;1.80;;;24.30;98.50;;;;;;5036719;28;20464;-75
2022/09/02 08:02:43;;;;;;;3.33;3.03;;;24.30;98.20;;;;;;5034793;28;20418;-74
2022/09/02 08:05:10;;;;;;;2.70;2.00;;;24.80;97.50;;;;;;5034378;28;20414;-74
2022/09/02 08:07:35;;;;;;;1.43;1.33;;;24.90;97.00;;;;;;5034722;28;20458;-74
2022/09/02 08:10:01;;;;;;;1.97;1.50;;;24.70;97.90;;;;;;5034594;28;20414;-74
2022/09/02 08:12:27;;;;;;;4.50;2.07;;;24.60;97.20;;;;;;5034220;28;20638;-75
2022/09/02 08:14:54;;;;;;;1.37;1.27;;;24.70;97.40;;;;;;5034069;28;20253;-74
2022/09/02 08:17:20;;;;;;;3.93;2.40;;;23.40;98.90;;;;;;5016529;28;20426;-74
2022/09/02 08:19:45;;;;;;;4.57;3.63;;;24.50;97.20;;;;;;5053078;28;20413;-73
2022/09/02 08:22:11;;;;;;;2.07;1.80;;;24.10;96.70;;;;;;5039754;28;20163;-74
2022/09/02 08:24:37;;;;;;;3.47;2.73;;;24.60;96.80;;;;;;5034324;28;20254;-74
2022/09/02 08:27:03;;;;;;;3.23;2.83;;;25.20;95.80;;;;;;5034772;28;20232;-73
2022/09/02 08:29:28;;;;;;;10.23;7.67;;;25.00;95.20;;;;;;5037474;28;20983;-73
2022/09/02 08:31:54;;;;;;;3.53;1.33;;;25.10;95.10;;;;;;5040974;28;20214;-73
2022/09/02 08:34:19;;;;;;;2.00;1.80;;;25.10;95.30;;;;;;5040142;28;20222;-74
2022/09/02 08:36:45;;;;;;;3.63;1.10;;;25.10;94.80;;;;;;5034357;28;20171;-75
2022/09/02 08:39:11;;;;;;;4.83;3.60;;;25.70;94.50;;;;;;5034152;28;20543;-75
2022/09/02 08:41:44;;;;;;;1.13;0.90;;;25.40;93.90;;;;;;5034044;28;20202;-75
2022/09/02 08:44:15;;;;;;;1.37;1.20;;;24.50;94.90;;;;;;5033930;28;20167;-75
2022/09/02 08:46:41;;;;;;;1.30;1.10;;;24.30;95.20;;;;;;5033399;28;20402;-74
2022/09/02 08:49:12;;;;;;;1.30;1.20;;;24.20;96.00;;;;;;5025598;28;20461;-74
2022/09/02 08:51:55;;;;;;;3.20;1.47;;;24.30;95.60;;;;;;5033849;28;20266;-74
2022/09/02 08:54:23;;;;;;;1.53;1.40;;;24.10;95.80;;;;;;5033599;28;20542;-75
2022/09/02 08:56:51;;;;;;;4.83;4.30;;;23.90;95.90;;;;;;5033686;28;20403;-74
2022/09/02 08:59:21;;;;;;;3.40;2.63;;;24.00;95.60;;;;;;5043790;28;20464;-74
2022/09/02 09:02:01;;;;;;;6.10;4.20;;;24.00;94.20;;;;;;5053651;28;20412;-75
2022/09/02 09:04:49;;;;;;;6.13;4.50;;;23.90;93.60;;;;;;5054849;28;20746;-75
2022/09/02 09:07:23;;;;;;;3.90;3.13;;;23.60;94.00;;;;;;5060368;28;20424;-74
2022/09/02 09:10:08;;;;;;;1.40;1.30;;;24.10;94.10;;;;;;5055095;28;20481;-74
2022/09/02 09:13:05;;;;;;;2.60;1.77;;;23.80;93.90;;;;;;5054602;28;20401;-74
2022/09/02 09:16:13;;;;;;;2.57;1.87;;;24.10;93.90;;;;;;5053569;28;20449;-74
2022/09/02 09:18:50;;;;;;;1.80;1.60;;;24.10;92.80;;;;;;5050102;28;20444;-74
2022/09/02 09:21:17;;;;;;;1.57;1.33;;;24.20;92.90;;;;;;5044472;28;20455;-74
2022/09/02 09:23:44;;;;;;;1.13;1.03;;;24.30;89.60;;;;;;5033660;28;20413;-75
2022/09/02 09:26:12;;;;;;;2.60;1.70;;;24.60;90.40;;;;;;5033086;28;21174;-74
2022/09/02 09:28:44;;;;;;;2.07;0.87;;;24.20;90.00;;;;;;5029418;28;20565;-74
2022/09/02 09:31:13;;;;;;;1.00;0.90;;;24.10;90.70;;;;;;5016265;28;20638;-74
2022/09/02 09:33:40;;;;;;;1.43;1.23;;;23.60;90.70;;;;;;5032813;28;20848;-74
2022/09/02 09:36:06;;;;;;;0.70;0.70;;;23.50;91.30;;;;;;5032734;28;20920;-74
2022/09/02 09:38:34;;;;;;;1.50;1.00;;;23.30;91.20;;;;;;5033195;28;20417;-74
2022/09/02 09:41:29;;;;;;;1.07;0.90;;;23.00;91.20;;;;;;5033161;28;20409;-74
2022/09/02 09:43:55;;;;;;;1.23;0.80;;;23.40;92.30;;;;;;5016108;28;20428;-75
2022/09/02 09:46:26;;;;;;;0.70;0.70;;;23.80;91.20;;;;;;5033162;28;20405;-74
2022/09/02 09:48:52;;;;;;;0.93;0.80;;;23.70;90.50;;;;;;5032687;28;20203;-74
2022/09/02 09:51:18;;;;;;;0.90;0.80;;;23.20;90.50;;;;;;5015331;28;20421;-74
2022/09/02 09:53:44;;;;;;;1.13;0.97;;;23.30;90.70;;;;;;5026429;28;20445;-74
2022/09/02 09:56:13;;;;;;;0.90;0.80;;;23.10;90.90;;;;;;5052851;28;20169;-74
2022/09/02 09:58:38;;;;;;;0.80;0.80;;;22.00;91.00;;;;;;5050630;28;20801;-74
2022/09/02 10:01:30;;;;;;;1.00;0.80;;;21.90;90.60;;;;;;5032746;28;20429;-74
2022/09/02 10:03:59;;;;;;;1.70;0.80;;;21.80;91.00;;;;;;5032698;28;20197;-73
2022/09/02 10:06:31;;;;;;;1.07;0.97;;;21.90;91.60;;;;;;5032273;28;20403;-74
2022/09/02 10:08:58;;;;;;;1.17;1.07;;;22.30;91.30;;;;;;5029986;28;20465;-74
2022/09/02 10:11:26;;;;;;;1.40;1.10;;;21.60;91.70;;;;;;5012236;28;20417;-74
2022/09/02 10:14:00;;;;;;;1.30;0.93;;;21.60;91.90;;;;;;5025461;28;20460;-74
2022/09/02 10:16:43;;;;;;;2.40;0.87;;;21.50;91.40;;;;;;5033129;28;20397;-73
2022/09/02 10:19:29;;;;;;;1.07;0.90;;;21.60;90.60;;;;;;5037599;28;20761;-73
2022/09/02 10:22:25;;;;;;;1.10;0.80;;;21.40;91.00;;;;;;5036213;28;20892;-74
2022/09/02 10:25:17;;;;;;;0.97;0.90;;;21.40;91.90;;;;;;5033067;28;20402;-74
2022/09/02 10:28:20;;;;;;;0.90;0.80;;;21.40;91.80;;;;;;5032252;28;20502;-74
2022/09/02 10:31:07;;;;;;;1.20;1.00;;;21.30;91.80;;;;;;5032134;28;20418;-74
2022/09/02 10:33:46;;;;;;;1.00;0.70;;;21.00;91.80;;;;;;5032259;28;20399;-73
2022/09/02 10:36:36;;;;;;;2.10;1.00;;;21.00;91.80;;;;;;5031860;28;20463;-74
2022/09/02 10:39:12;;;;;;;3.10;2.27;;;20.60;92.00;;;;;;5031987;28;20402;-73
2022/09/02 10:41:46;;;;;;;0.93;0.90;;;20.70;92.80;;;;;;5032261;28;20539;-73
2022/09/02 10:44:25;;;;;;;1.30;1.10;;;20.90;93.20;;;;;;5032201;28;20397;-73
2022/09/02 10:47:19;;;;;;;1.40;0.90;;;20.80;93.10;;;;;;5031752;28;20398;-73
2022/09/02 10:50:10;;;;;;;1.50;1.00;;;21.00;93.20;;;;;;5032092;28;20770;-73
2022/09/02 10:52:54;;;;;;;4.50;1.10;;;20.90;92.90;;;;;;5034280;28;20434;-73
2022/09/02 10:55:57;;;;;;;0.80;0.80;;;20.80;92.90;;;;;;5042067;28;20449;-74
2022/09/02 10:58:53;;;;;;;1.37;1.17;;;20.80;92.50;;;;;;5034610;28;20416;-74
2022/09/02 11:01:25;;;;;;;1.40;1.00;;;20.70;91.90;;;;;;5052128;28;20448;-75
2022/09/02 11:04:04;;;;;;;2.17;1.23;;;20.90;91.60;;;;;;5052120;28;20461;-74
2022/09/02 11:06:34;;;;;;;1.13;1.00;;;20.90;91.30;;;;;;5027568;28;20522;-74
2022/09/02 11:09:31;;;;;;;1.13;1.03;;;21.30;90.90;;;;;;5032129;28;20843;-74
2022/09/02 11:12:04;;;;;;;1.47;0.80;;;21.20;90.70;;;;;;5032003;28;20944;-73
2022/09/02 11:14:35;;;;;;;1.00;0.90;;;21.10;89.60;;;;;;5047369;28;20484;-74
2022/09/02 11:17:10;;;;;;;2.90;1.10;;;21.30;90.30;;;;;;5051981;28;20430;-74
2022/09/02 11:19:50;;;;;;;1.20;0.87;;;21.30;90.10;;;;;;5051948;28;20396;-73
2022/09/02 11:22:40;;;;;;;1.07;0.97;;;21.10;87.60;;;;;;5034340;28;20946;-74
2022/09/02 11:25:19;;;;;;;0.80;0.80;;;21.10;88.50;;;;;;5035764;28;20397;-74
2022/09/02 11:28:09;;;;;;;1.23;1.10;;;21.20;86.40;;;;;;5035641;28;20467;-74
2022/09/02 11:30:45;;;;;;;2.77;1.63;;;21.30;88.80;;;;;;5035692;28;20418;-74
2022/09/02 11:33:37;;;;;;;2.00;1.57;;;21.30;90.00;;;;;;5035778;28;20403;-74
2022/09/02 11:36:03;;;;;;;0.90;0.90;;;21.10;90.30;;;;;;5035380;28;20439;-74
2022/09/02 11:38:53;;;;;;;1.17;1.07;;;20.90;90.80;;;;;;5035762;28;20465;-74
2022/09/02 11:41:27;;;;;;;2.73;1.37;;;21.10;91.20;;;;;;5035598;28;20413;-74
2022/09/02 11:44:18;;;;;;;1.40;1.10;;;21.30;91.60;;;;;;5035730;28;20400;-73
2022/09/02 11:46:53;;;;;;;1.53;1.10;;;21.80;90.50;;;;;;5035541;28;20440;-74
2022/09/02 11:49:37;;;;;;;1.23;1.00;;;21.70;89.50;;;;;;5035835;28;20428;-74
2022/09/02 11:52:19;;;;;;;2.23;0.90;;;21.70;89.70;;;;;;5035161;28;20400;-74
2022/09/02 11:54:47;;;;;;;1.27;1.13;;;21.80;87.60;;;;;;5037031;28;20825;-73
2022/09/02 11:57:24;;;;;;;1.27;1.10;;;21.70;86.40;;;;;;5055029;28;20431;-74
2022/09/02 11:59:50;;;;;;;1.70;1.43;;;21.70;86.50;;;;;;5040783;28;20918;-74
2022/09/02 12:02:33;;;;;;;1.90;1.30;;;22.00;87.80;;;;;;5035791;28;20407;-74
2022/09/02 12:05:28;;;;;;;1.67;1.30;;;22.00;84.30;;;;;;5039854;28;20174;-73
2022/09/02 12:08:05;;;;;;;4.10;1.10;;;21.80;81.70;;;;;;5032630;28;20548;-73
2022/09/02 12:10:42;;;;;;;1.00;0.90;;;21.50;82.70;;;;;;5035042;28;20396;-74
2022/09/02 12:13:39;;;;;;;1.40;1.07;;;21.80;82.00;;;;;;5039076;28;20409;-74
2022/09/02 12:16:14;;;;;;;1.40;1.30;;;21.90;81.30;;;;;;5049890;28;20432;-73
2022/09/02 12:18:57;;;;;;;1.87;1.60;;;21.90;82.40;;;;;;5054888;28;20419;-74
2022/09/02 12:21:25;;;;;;;6.20;3.23;;;22.10;82.30;;;;;;5044643;28;20395;-74
2022/09/02 12:23:53;;;;;;;3.03;1.97;;;22.30;83.50;;;;;;5034721;28;20407;-74
2022/09/02 12:26:21;;;;;;;2.07;1.87;;;22.50;83.40;;;;;;5034173;28;20489;-74
2022/09/02 12:28:48;;;;;;;1.43;0.97;;;22.70;83.80;;;;;;5041686;28;20448;-73
2022/09/02 12:31:41;;;;;;;7.23;4.80;;;22.40;82.10;;;;;;5036264;28;20787;-73
2022/09/02 12:34:19;;;;;;;1.30;1.20;;;22.60;83.50;;;;;;5047794;28;20508;-74
2022/09/02 12:36:52;;;;;;;1.73;1.17;;;22.50;82.90;;;;;;5040167;28;20736;-74
2022/09/02 12:39:26;;;;;;;3.00;1.00;;;22.80;82.70;;;;;;5034652;28;20762;-74
2022/09/02 12:42:06;;;;;;;1.53;1.10;;;22.70;82.20;;;;;;5033841;28;20397;-74
2022/09/02 12:44:50;;;;;;;1.20;0.97;;;22.90;84.30;;;;;;5034018;28;20409;-74
2022/09/02 12:47:18;;;;;;;1.23;1.13;;;23.10;81.40;;;;;;5033779;28;20864;-74
2022/09/02 12:49:59;;;;;;;2.80;1.40;;;22.80;81.70;;;;;;5035510;28;20474;-75
2022/09/02 12:52:33;;;;;;;0.80;0.80;;;23.00;83.20;;;;;;5035128;28;20417;-75
2022/09/02 12:55:24;;;;;;;1.53;1.20;;;22.70;83.50;;;;;;5035300;28;20505;-75
2022/09/02 12:57:53;;;;;;;1.57;1.10;;;22.70;83.40;;;;;;5035343;28;20944;-75
2022/09/02 13:00:45;;;;;;;1.20;1.10;;;22.30;84.10;;;;;;5017157;28;20412;-75
2022/09/02 13:03:43;;;;;;;1.30;0.90;;;22.20;83.80;;;;;;5054370;28;20408;-75
2022/09/02 13:06:42;;;;;;;0.80;0.80;;;22.10;84.40;;;;;;5021547;28;20426;-75
2022/09/02 13:09:20;;;;;;;2.53;1.17;;;22.00;84.80;;;;;;5055315;28;20453;-75
2022/09/02 13:12:16;;;;;;;1.83;1.10;;;22.00;83.90;;;;;;5020783;28;20422;-75